createdAt,value
2023-03-13T00:01:41.906Z,0.90
2023-03-13T00:04:09.305Z,1.53
2023-03-13T00:06:38.334Z,1.10
2023-03-13T00:09:08.153Z,1.57
2023-03-13T00:11:35.254Z,0.97
2023-03-13T00:14:04.401Z,1.50
2023-03-13T00:16:32.063Z,0.90
2023-03-13T00:19:00.093Z,0.80
2023-03-13T00:21:29.662Z,1.17
2023-03-13T00:23:58.471Z,1.13
2023-03-13T00:26:27.890Z,1.40
2023-03-13T00:28:55.363Z,0.80
2023-03-13T00:31:30.972Z,0.80
2023-03-13T00:34:00.799Z,1.23
2023-03-13T00:36:30.406Z,0.80
2023-03-13T00:39:00.808Z,1.43
2023-03-13T00:41:30.537Z,0.70
2023-03-13T00:43:58.570Z,0.70
2023-03-13T00:46:28.569Z,0.80
2023-03-13T00:48:56.254Z,0.87
2023-03-13T00:51:24.678Z,0.80
2023-03-13T00:53:51.617Z,1.50
2023-03-13T00:56:20.307Z,0.90
2023-03-13T00:58:49.807Z,0.90
2023-03-13T01:01:18.598Z,1.00
2023-03-13T01:03:51.393Z,0.90
2023-03-13T01:06:21.519Z,1.20
2023-03-13T01:08:49.151Z,0.83
2023-03-13T01:11:22.320Z,0.70
2023-03-13T01:13:50.561Z,0.70
2023-03-13T01:16:20.776Z,0.30
2023-03-13T01:18:53.661Z,0.90
2023-03-13T01:21:21.985Z,1.83
2023-03-13T01:23:50.348Z,1.50
2023-03-13T01:26:17.828Z,0.93
2023-03-13T01:28:45.224Z,1.00
2023-03-13T01:31:21.392Z,0.60
2023-03-13T01:33:50.892Z,0.93
2023-03-13T01:36:19.124Z,0.40
2023-03-13T01:38:50.146Z,0.90
2023-03-13T01:41:18.176Z,1.00
2023-03-13T01:43:46.053Z,1.20
2023-03-13T01:46:28.992Z,0.90
2023-03-13T01:49:20.837Z,0.80
2023-03-13T01:51:55.389Z,0.80
2023-03-13T01:54:38.803Z,0.60
2023-03-13T01:57:35.604Z,0.47
2023-03-13T02:00:08.339Z,0.70
2023-03-13T02:02:37.000Z,0.70
2023-03-13T02:05:06.097Z,0.50
2023-03-13T02:07:43.711Z,0.70
2023-03-13T02:10:12.053Z,0.50
2023-03-13T02:12:40.896Z,1.00
2023-03-13T02:15:23.844Z,1.10
2023-03-13T02:17:51.659Z,0.80
2023-03-13T02:20:23.850Z,0.90
2023-03-13T02:23:14.383Z,0.80
2023-03-13T02:25:45.477Z,1.00
2023-03-13T02:28:23.428Z,1.43
2023-03-13T02:30:53.447Z,0.83
2023-03-13T02:33:22.701Z,0.77
2023-03-13T02:35:50.109Z,0.67
2023-03-13T02:38:23.715Z,0.47
2023-03-13T02:40:53.265Z,0.70
2023-03-13T02:43:37.731Z,0.70
2023-03-13T02:46:18.618Z,0.57
2023-03-13T02:48:55.047Z,1.03
2023-03-13T02:51:28.171Z,0.90
2023-03-13T02:54:02.079Z,1.50
2023-03-13T02:56:31.829Z,0.50
2023-03-13T02:58:58.994Z,0.40
2023-03-13T03:01:26.046Z,0.90
2023-03-13T03:03:53.313Z,0.77
2023-03-13T03:06:20.779Z,1.27
2023-03-13T03:08:47.890Z,0.80
2023-03-13T03:11:15.268Z,1.00
2023-03-13T03:13:42.456Z,1.10
2023-03-13T03:16:12.248Z,1.03
2023-03-13T03:18:39.710Z,1.10
2023-03-13T03:21:07.177Z,1.30
2023-03-13T03:23:35.075Z,0.80
2023-03-13T03:26:03.165Z,0.93
2023-03-13T03:28:30.403Z,0.80
2023-03-13T03:30:57.458Z,0.67
2023-03-13T03:33:24.962Z,1.20
2023-03-13T03:35:52.015Z,1.43
2023-03-13T03:38:19.064Z,0.50
2023-03-13T03:40:46.188Z,1.70
2023-03-13T03:43:13.288Z,0.70
2023-03-13T03:45:40.761Z,1.37
2023-03-13T03:48:07.954Z,0.73
2023-03-13T03:50:35.136Z,0.73
2023-03-13T03:53:02.275Z,1.27
2023-03-13T03:55:29.390Z,0.93
2023-03-13T03:57:56.423Z,0.50
2023-03-13T04:00:23.688Z,0.77
2023-03-13T04:02:51.029Z,0.60
2023-03-13T04:05:18.114Z,0.60
2023-03-13T04:07:45.118Z,0.90
2023-03-13T04:10:12.579Z,0.80
2023-03-13T04:12:40.062Z,1.20
2023-03-13T04:15:07.669Z,0.90
2023-03-13T04:17:34.915Z,0.83
2023-03-13T04:20:08.380Z,1.37
2023-03-13T04:22:35.563Z,0.73
2023-03-13T04:25:02.745Z,0.70
2023-03-13T04:30:13.921Z,0.70
2023-03-13T04:32:41.231Z,0.87
2023-03-13T04:35:08.997Z,0.80
2023-03-13T04:37:36.346Z,0.90
2023-03-13T04:40:03.593Z,0.87
2023-03-13T04:42:30.815Z,0.83
2023-03-13T04:44:57.849Z,1.03
2023-03-13T04:47:24.820Z,1.43
2023-03-13T04:49:51.895Z,4.93
2023-03-13T04:52:18.979Z,1.77
2023-03-13T04:54:46.016Z,1.67
2023-03-13T04:57:13.181Z,2.60
2023-03-13T04:59:40.317Z,1.23
2023-03-13T05:02:07.597Z,1.30
2023-03-13T05:04:34.736Z,1.67
2023-03-13T05:07:01.740Z,2.00
2023-03-13T05:09:28.807Z,1.00
2023-03-13T05:11:58.055Z,1.00
2023-03-13T05:14:25.393Z,1.60
2023-03-13T05:16:52.590Z,1.23
2023-03-13T05:19:19.792Z,1.37
2023-03-13T05:21:46.775Z,1.00
2023-03-13T05:24:13.940Z,1.10
2023-03-13T05:26:40.939Z,1.30
2023-03-13T05:29:07.940Z,1.17
2023-03-13T05:31:35.113Z,1.10
2023-03-13T05:34:02.244Z,0.83
2023-03-13T05:36:29.310Z,1.03
2023-03-13T05:38:56.406Z,1.57
2023-03-13T05:41:23.500Z,1.30
2023-03-13T05:43:50.737Z,0.60
2023-03-13T05:46:18.080Z,1.33
2023-03-13T05:48:45.798Z,1.10
2023-03-13T05:51:13.495Z,0.97
2023-03-13T05:53:40.493Z,0.97
2023-03-13T05:56:07.818Z,0.60
2023-03-13T05:58:35.202Z,1.03
2023-03-13T06:01:10.916Z,0.50
2023-03-13T06:03:38.216Z,0.80
2023-03-13T06:06:05.524Z,2.57
2023-03-13T06:08:32.835Z,1.07
2023-03-13T06:11:01.454Z,1.00
2023-03-13T06:13:29.311Z,0.63
2023-03-13T06:15:58.090Z,0.80
2023-03-13T06:18:26.780Z,0.90
2023-03-13T06:20:59.356Z,0.70
2023-03-13T06:23:26.710Z,1.10
2023-03-13T06:25:54.583Z,1.43
2023-03-13T06:28:22.100Z,1.00
2023-03-13T06:30:49.147Z,1.23
2023-03-13T06:33:16.366Z,0.70
2023-03-13T06:35:55.968Z,0.67
2023-03-13T06:38:24.716Z,0.53
2023-03-13T06:40:52.174Z,0.53
2023-03-13T06:43:19.678Z,0.97
2023-03-13T06:45:46.818Z,0.97
2023-03-13T06:48:14.305Z,1.00
2023-03-13T06:50:42.258Z,0.67
2023-03-13T06:53:17.008Z,0.80
2023-03-13T06:55:44.820Z,1.20
2023-03-13T06:58:25.282Z,0.80
2023-03-13T07:00:58.536Z,0.70
2023-03-13T07:03:26.010Z,0.73
2023-03-13T07:05:57.568Z,0.80
2023-03-13T07:08:25.886Z,0.47
2023-03-13T07:10:54.469Z,0.77
2023-03-13T07:13:22.603Z,1.07
2023-03-13T07:15:49.930Z,0.70
2023-03-13T07:18:17.062Z,1.10
2023-03-13T07:20:44.519Z,0.67
2023-03-13T07:23:13.337Z,1.00
2023-03-13T07:25:40.376Z,1.00
2023-03-13T07:28:07.385Z,0.67
2023-03-13T07:30:35.202Z,0.90
2023-03-13T07:33:02.337Z,1.00
2023-03-13T07:35:29.960Z,1.00
2023-03-13T07:37:57.241Z,0.70
2023-03-13T07:40:27.664Z,1.50
2023-03-13T07:42:55.047Z,1.57
2023-03-13T07:45:23.197Z,0.73
2023-03-13T07:47:50.216Z,0.70
2023-03-13T07:50:17.524Z,0.77
2023-03-13T07:52:44.854Z,1.40
2023-03-13T07:55:12.372Z,0.53
2023-03-13T07:57:39.505Z,0.70
2023-03-13T08:00:10.519Z,0.40
2023-03-13T08:02:37.606Z,2.10
2023-03-13T08:05:06.575Z,0.80
2023-03-13T08:07:33.798Z,1.43
2023-03-13T08:10:00.952Z,0.50
2023-03-13T08:12:28.076Z,0.80
2023-03-13T08:14:55.605Z,0.80
2023-03-13T08:17:22.645Z,0.70
2023-03-13T08:19:49.981Z,0.70
2023-03-13T08:22:18.112Z,0.80
2023-03-13T08:24:45.347Z,1.40
2023-03-13T08:27:12.476Z,0.77
2023-03-13T08:29:39.682Z,1.07
2023-03-13T08:32:06.761Z,0.60
2023-03-13T08:34:35.310Z,1.13
2023-03-13T08:37:02.439Z,0.90
2023-03-13T08:39:29.423Z,1.00
2023-03-13T08:41:56.423Z,0.87
2023-03-13T08:44:23.978Z,1.23
2023-03-13T08:46:51.228Z,1.27
2023-03-13T08:49:18.214Z,1.57
2023-03-13T08:51:45.904Z,0.90
2023-03-13T08:54:13.008Z,1.10
2023-03-13T08:56:41.376Z,1.30
2023-03-13T08:59:08.582Z,1.20
2023-03-13T09:01:36.851Z,1.33
2023-03-13T09:04:05.735Z,1.23
2023-03-13T09:06:37.341Z,1.07
2023-03-13T09:09:05.757Z,0.50
2023-03-13T09:11:33.373Z,1.60
2023-03-13T09:14:00.474Z,1.10
2023-03-13T09:16:30.039Z,1.20
2023-03-13T09:18:58.661Z,1.60
2023-03-13T09:21:32.195Z,1.00
2023-03-13T09:23:59.796Z,2.40
2023-03-13T09:26:27.892Z,1.53
2023-03-13T09:28:55.908Z,1.57
2023-03-13T09:31:28.673Z,1.20
2023-03-13T09:33:56.582Z,1.50
2023-03-13T09:36:26.209Z,0.90
2023-03-13T09:38:59.499Z,1.00
2023-03-13T09:41:35.146Z,1.40
2023-03-13T09:44:05.776Z,1.60
2023-03-13T09:46:58.958Z,1.27
2023-03-13T09:49:55.648Z,1.33
2023-03-13T09:52:30.716Z,1.27
2023-03-13T09:55:13.262Z,1.40
2023-03-13T09:57:50.143Z,1.80
2023-03-13T10:00:26.296Z,1.20
2023-03-13T10:03:15.033Z,2.47
2023-03-13T10:05:58.656Z,1.40
2023-03-13T10:08:28.255Z,1.40
2023-03-13T10:11:06.944Z,1.50
2023-03-13T10:13:49.155Z,0.97
2023-03-13T10:16:22.892Z,1.13
2023-03-13T10:18:55.353Z,1.40
2023-03-13T10:21:26.684Z,1.50
2023-03-13T10:24:04.655Z,0.90
2023-03-13T10:26:35.333Z,0.77
2023-03-13T10:29:23.738Z,1.20
2023-03-13T10:32:03.026Z,1.17
2023-03-13T10:34:56.841Z,0.93
2023-03-13T10:37:40.194Z,1.13
2023-03-13T10:40:13.495Z,1.10
2023-03-13T10:42:45.706Z,1.10
2023-03-13T10:45:23.921Z,1.40
2023-03-13T10:47:57.236Z,1.10
2023-03-13T10:50:27.592Z,0.97
2023-03-13T10:52:55.476Z,1.20
2023-03-13T10:55:41.833Z,0.90
2023-03-13T10:58:29.170Z,1.30
2023-03-13T11:01:16.757Z,1.50
2023-03-13T11:03:44.932Z,1.70
2023-03-13T11:06:35.152Z,1.53
2023-03-13T11:09:13.197Z,1.93
2023-03-13T11:11:52.987Z,1.23
2023-03-13T11:14:21.290Z,0.87
2023-03-13T11:17:30.634Z,1.00
2023-03-13T11:20:24.041Z,0.97
2023-03-13T11:22:51.094Z,1.60
2023-03-13T11:25:41.630Z,1.20
2023-03-13T11:28:08.742Z,1.70
2023-03-13T11:31:15.555Z,1.17
2023-03-13T11:33:57.712Z,1.40
2023-03-13T11:36:33.508Z,1.60
2023-03-13T11:39:39.188Z,1.80
2023-03-13T11:42:18.148Z,1.27
2023-03-13T11:44:47.902Z,1.23
2023-03-13T11:47:42.652Z,1.57
2023-03-13T11:50:22.177Z,1.77
2023-03-13T11:53:16.904Z,1.70
2023-03-13T11:55:50.030Z,1.67
2023-03-13T11:58:17.277Z,1.27
2023-03-13T12:01:09.585Z,1.70
2023-03-13T12:03:40.053Z,2.20
2023-03-13T12:06:32.246Z,1.30
2023-03-13T12:09:09.844Z,1.30
2023-03-13T12:12:24.538Z,1.40
2023-03-13T12:15:21.596Z,1.17
2023-03-13T12:17:55.467Z,1.40
2023-03-13T12:20:43.719Z,1.40
2023-03-13T12:23:35.282Z,1.53
2023-03-13T12:26:19.266Z,1.20
2023-03-13T12:28:49.524Z,1.40
2023-03-13T12:31:32.250Z,1.53
2023-03-13T12:34:30.535Z,1.50
2023-03-13T12:37:01.386Z,1.70
2023-03-13T12:39:41.465Z,1.50
2023-03-13T12:42:17.636Z,1.30
2023-03-13T12:44:45.523Z,1.60
2023-03-13T12:47:31.342Z,1.80
2023-03-13T12:50:20.686Z,1.60
2023-03-13T12:53:24.097Z,1.70
2023-03-13T12:56:06.033Z,1.50
2023-03-13T12:58:53.307Z,1.40
2023-03-13T13:01:30.724Z,1.63
2023-03-13T13:04:07.552Z,1.67
2023-03-13T13:06:57.655Z,1.67
2023-03-13T13:10:01.049Z,1.77
2023-03-13T13:12:29.889Z,1.73
2023-03-13T13:15:22.684Z,1.20
2023-03-13T13:18:26.566Z,1.80
2023-03-13T13:21:02.511Z,1.63
2023-03-13T13:23:39.380Z,2.10
2023-03-13T13:26:36.417Z,2.00
2023-03-13T13:29:12.547Z,2.20
2023-03-13T13:31:55.131Z,2.00
2023-03-13T13:34:31.467Z,1.87
2023-03-13T13:37:04.225Z,2.13
2023-03-13T13:39:43.630Z,1.60
2023-03-13T13:42:32.550Z,1.70
2023-03-13T13:45:15.086Z,2.90
2023-03-13T13:47:44.784Z,2.60
2023-03-13T13:50:19.562Z,1.13
2023-03-13T13:52:49.962Z,1.73
2023-03-13T13:55:33.729Z,1.70
2023-03-13T13:58:04.922Z,1.43
2023-03-13T14:00:46.311Z,1.40
2023-03-13T14:03:23.849Z,1.60
2023-03-13T14:06:01.962Z,1.33
2023-03-13T14:08:39.596Z,1.63
2023-03-13T14:11:24.810Z,1.67
2023-03-13T14:14:11.159Z,1.87
2023-03-13T14:16:39.761Z,2.13
2023-03-13T14:19:32.500Z,2.30
2023-03-13T14:22:02.106Z,2.03
2023-03-13T14:24:29.144Z,3.17
2023-03-13T14:26:56.190Z,2.00
2023-03-13T14:29:26.187Z,1.50
2023-03-13T14:32:01.445Z,1.17
2023-03-13T14:34:31.487Z,1.63
2023-03-13T14:37:17.391Z,1.50
2023-03-13T14:39:48.934Z,1.77
2023-03-13T14:42:17.855Z,1.37
2023-03-13T14:44:47.432Z,1.70
2023-03-13T14:47:26.985Z,1.33
2023-03-13T14:50:04.188Z,1.07
2023-03-13T14:52:33.081Z,1.50
2023-03-13T14:55:07.941Z,1.30
2023-03-13T14:57:36.267Z,1.07
2023-03-13T15:00:29.060Z,0.90
2023-03-13T15:03:16.857Z,1.27
2023-03-13T15:05:45.842Z,3.33
2023-03-13T15:08:19.157Z,1.43
2023-03-13T15:10:49.337Z,1.10
2023-03-13T15:13:34.259Z,1.10
2023-03-13T15:16:02.618Z,1.10
2023-03-13T15:18:34.804Z,1.63
2023-03-13T15:21:11.036Z,1.10
2023-03-13T15:23:38.096Z,1.33
2023-03-13T15:26:10.541Z,1.20
2023-03-13T15:28:37.694Z,1.53
2023-03-13T15:31:05.128Z,1.33
2023-03-13T15:33:32.635Z,1.47
2023-03-13T15:35:59.701Z,1.07
2023-03-13T15:38:28.006Z,1.57
2023-03-13T15:40:55.205Z,0.93
2023-03-13T15:43:23.307Z,1.70
2023-03-13T15:45:53.708Z,1.13
2023-03-13T15:48:23.899Z,1.30
2023-03-13T15:50:56.249Z,1.13
2023-03-13T15:53:28.922Z,1.77
2023-03-13T15:56:03.206Z,1.87
2023-03-13T15:58:32.011Z,1.20
2023-03-13T16:00:59.275Z,1.37
2023-03-13T16:03:29.120Z,0.80
2023-03-13T16:05:57.335Z,1.00
2023-03-13T16:08:36.051Z,1.37
2023-03-13T16:11:05.011Z,1.53
2023-03-13T16:13:32.197Z,0.93
2023-03-13T16:15:59.330Z,1.80
2023-03-13T16:18:26.388Z,2.97
2023-03-13T16:20:53.921Z,1.10
2023-03-13T16:23:21.518Z,1.40
2023-03-13T16:25:51.605Z,1.20
2023-03-13T16:28:18.667Z,1.40
2023-03-13T16:30:47.640Z,1.60
2023-03-13T16:33:16.248Z,1.30
2023-03-13T16:35:43.549Z,1.63
2023-03-13T16:41:23.429Z,1.20
2023-03-13T16:43:50.790Z,1.33
2023-03-13T16:46:23.480Z,1.60
2023-03-13T16:48:51.390Z,1.20
2023-03-13T16:51:24.289Z,1.30
2023-03-13T16:53:53.558Z,1.77
2023-03-13T16:56:33.958Z,1.53
2023-03-13T17:07:19.429Z,0.57
2023-03-13T17:11:39.530Z,0.23
2023-03-13T17:39:57.366Z,0.00
2023-03-13T18:15:33.260Z,0.20
2023-03-13T18:18:00.472Z,0.10
2023-03-13T18:20:30.579Z,0.10
2023-03-13T18:23:00.630Z,0.10
2023-03-13T18:25:29.377Z,0.10
2023-03-13T18:27:56.612Z,0.30
2023-03-13T18:30:25.791Z,0.30
2023-03-13T18:32:56.396Z,0.10
2023-03-13T18:35:46.406Z,0.10
2023-03-13T18:38:36.345Z,0.40
2023-03-13T18:41:07.237Z,0.00
2023-03-13T18:43:36.107Z,0.00
2023-03-13T18:46:09.860Z,0.00
2023-03-13T18:48:39.384Z,0.10
2023-03-13T18:51:07.322Z,0.10
2023-03-13T18:53:35.010Z,0.10
2023-03-13T18:56:10.389Z,0.10
2023-03-13T18:58:37.824Z,0.60
2023-03-13T19:01:05.868Z,0.87
2023-03-13T19:03:33.456Z,0.20
2023-03-13T19:06:01.976Z,0.00
2023-03-13T19:08:33.278Z,0.00
2023-03-13T19:11:12.969Z,0.50
2023-03-13T19:13:41.172Z,0.10
2023-03-13T19:16:51.565Z,0.20
2023-03-13T19:19:23.455Z,1.90
2023-03-13T19:21:55.346Z,0.10
2023-03-13T19:24:28.804Z,0.20
2023-03-13T19:37:17.564Z,0.10
2023-03-13T19:44:54.738Z,0.00
2023-03-13T19:47:21.956Z,0.10
2023-03-13T19:49:51.208Z,0.23
2023-03-13T19:52:19.576Z,0.03
2023-03-13T19:54:47.059Z,0.10
2023-03-13T19:57:14.095Z,0.30
2023-03-13T19:59:41.221Z,0.10
2023-03-13T20:02:11.466Z,0.10
2023-03-13T20:04:39.639Z,0.00
2023-03-13T20:07:08.352Z,0.10
2023-03-13T20:09:36.640Z,0.10
2023-03-13T20:12:04.240Z,0.10
2023-03-13T20:14:31.405Z,0.10
2023-03-13T20:17:00.547Z,0.10
2023-03-13T20:19:29.717Z,0.50
2023-03-13T20:22:08.887Z,0.10
2023-03-13T20:24:36.276Z,0.10
2023-03-13T20:27:03.524Z,0.10
2023-03-13T20:29:30.837Z,0.10
2023-03-13T20:32:01.713Z,0.30
2023-03-13T20:34:31.559Z,0.10
2023-03-13T20:37:02.582Z,0.10
2023-03-13T20:39:34.521Z,0.10
2023-03-13T20:42:03.212Z,0.00
2023-03-13T20:44:33.139Z,0.03
2023-03-13T20:47:00.470Z,0.10
2023-03-13T20:49:27.676Z,0.00
2023-03-13T20:51:54.942Z,0.10
2023-03-13T20:54:22.412Z,0.53
2023-03-13T20:56:49.407Z,0.00
2023-03-13T20:59:16.447Z,0.10
2023-03-13T21:01:44.238Z,0.33
2023-03-13T21:04:11.320Z,0.20
2023-03-13T21:06:38.329Z,1.07
2023-03-13T21:09:05.532Z,0.00
2023-03-13T21:11:33.862Z,0.10
2023-03-13T21:14:02.081Z,0.10
2023-03-13T21:16:29.218Z,0.10
2023-03-13T21:18:56.271Z,0.33
2023-03-13T21:21:23.325Z,0.37
2023-03-13T21:23:53.308Z,0.00
2023-03-13T21:26:20.611Z,0.37
2023-03-13T21:28:48.185Z,0.10
2023-03-13T21:31:19.296Z,0.10
2023-03-13T21:33:47.347Z,0.00
2023-03-13T21:36:17.438Z,0.10
2023-03-13T21:38:44.738Z,0.10
2023-03-13T21:41:14.424Z,0.10
2023-03-13T21:43:42.709Z,0.17
2023-03-13T21:46:11.674Z,0.10
2023-03-13T21:51:11.871Z,0.10
2023-03-13T21:53:39.301Z,1.40
2023-03-13T21:56:15.333Z,0.10
2023-03-13T21:58:43.289Z,0.20
2023-03-13T22:01:11.810Z,0.10
2023-03-13T22:03:38.952Z,0.10
2023-03-13T22:06:17.469Z,0.10
2023-03-13T22:08:44.693Z,0.10
2023-03-13T22:11:11.873Z,0.10
2023-03-13T22:13:39.174Z,0.00
2023-03-13T22:16:11.604Z,0.20
2023-03-13T22:18:40.903Z,0.20
2023-03-13T22:21:08.026Z,0.10
2023-03-13T22:23:35.150Z,0.10
2023-03-13T22:26:02.451Z,0.10
2023-03-13T22:28:29.560Z,0.10
2023-03-13T22:31:00.822Z,0.10
2023-03-13T22:33:28.329Z,0.10
2023-03-13T22:35:55.479Z,0.10
2023-03-13T22:38:25.495Z,0.00
2023-03-13T22:41:04.861Z,0.20
2023-03-13T22:43:32.095Z,0.33
2023-03-13T22:45:59.724Z,0.00
2023-03-13T22:48:27.714Z,0.10
2023-03-13T22:51:08.101Z,0.57
2023-03-13T22:53:40.596Z,0.10
2023-03-13T22:56:13.014Z,0.10
2023-03-13T22:58:41.257Z,0.10
2023-03-13T23:01:16.821Z,0.00
2023-03-13T23:03:45.024Z,0.10
